Eastland, TX (76448)

4:44 PM CDT on April 01, 2015 (GMT -0500)
North Chaney | | Change Station
CLOSE
Current Station
Personal Weather Station
Location: Ranger, TX
Elevation: 1437 ft
Nearby Weather Stations

Elev 1437 ft 32.39 °N, 98.62 °W | Updated 4 minutes ago

Partly Cloudy
Partly Cloudy
83.0 °F
Feels Like 84 °F
N
6.0
Wind Variable Wind from SSE
Gusts 10.0 mph

Today
High -- | Low -- °F
--% Chance of Precip.
Yesterday
High -- | Low -- °F
Precip. -- in
7:23 AM 7:55 PM
Waxing Gibbous, 94% visible
Pressure 29.77 in
Visibility 10.0 miles
Clouds Scattered Clouds 4800 ft
Scattered Clouds 5500 ft
Heat Index 84 °F
Dew Point 61 °F
Humidity 48%
Rainfall 0.02 in
Snow Depth Not available.
UV 4 out of 12
Pollen 11.30 out of 12
Air Quality Not available.
Flu Activity Not available.
METAR KBKD 012135Z AUTO 17012KT 10SM SCT048 SCT055 29/13 A2977 RMK AO2 T02900131

More Conditions Fewer Conditions

Pressure 29.77 in
Visibility 10.0 miles
Clouds Scattered Clouds 4800 ft
Scattered Clouds 5500 ft
Heat Index 84 °F
Dew Point 61 °F
Humidity 48%
Rainfall 0.02 in
Snow Depth Not available.
UV 4 out of 12
Pollen 11.30 out of 12
Air Quality Not available.
Flu Activity Not available.
METAR KBKD 012135Z AUTO 17012KT 10SM SCT048 SCT055 29/13 A2977 RMK AO2 T02900131

More Conditions Fewer Conditions

Nowcast | as of 3:09 PM CDT on April 1, 2015

Scattered showers will continue to develop through the afternoon hours today...especially along and west of a Sherman to Rockwall to Leona line. With sufficient instability and modest amounts of wind shear...a few thunderstorms may develop...and some of these storms may become strong to severe. The main threats will be large hail...strong gusty winds...frequent cloud-to-ground lightning...and heavy rain. Otherwise...skies should range from partly to mostly cloudy with temperatures in the 70s and 80s.

×

10-Day Weather Forecast

Almanac

Astronomy

Apr. 01, 2015 Rise Set
Actual Time
Civil Twilight
Nautical Twilight
Astronomical Twilight
Moon
Length of Visible Light
Length of Day
Tomorrow will be .
, % of the Moon is Illuminated

Today's Extremes

State Highs State Lows

Community

WunderPhotos

Upload Photos

1,810,090 photos uploaded!

WunderBlogs® & News

Nearby

Air Quality

  Air Quality AQ Index Pollutant
Not available.

Snow Depth

Station Depth Elevation

Earthquake Activity

City Distance Mag. Time & Date
Minimum magnitude displayed is 2.5.

Coastal Water Temperatures

Place Temperature

Stations

Nearby Weather Stations

Station Location Temp. Windchill Dew Point Humidity Wind Precip. Elev Updated Type